Time;durP1;ratioP1;P1;durP2;ratioP2;P2;SDS_P1;SDS_P2;PMS_P1;PMS_P2;Temp;Humidity;BMP_temperature;BMP_pressure;BME280_temperature;BME280_humidity;BME280_pressure;Samples;Min_cycle;Max_cycle;Signal;HPM_P1;HPM_P2
2021/08/16 00:00:52;;;;;;;2.97;1.50;;;39.60;46.40;;;;;;5032455;28;20081;-66
2021/08/16 00:03:18;;;;;;;5.85;2.03;;;39.70;45.90;;;;;;5032512;28;20580;-67
2021/08/16 00:05:45;;;;;;;6.28;2.38;;;39.60;46.50;;;;;;5032119;28;20123;-66
2021/08/16 00:08:12;;;;;;;5.35;2.20;;;39.70;45.30;;;;;;5032008;28;20162;-66
2021/08/16 00:10:41;;;;;;;6.43;1.92;;;39.70;45.30;;;;;;5031272;28;20492;-67
2021/08/16 00:13:09;;;;;;;4.05;2.47;;;39.60;45.90;;;;;;5030425;28;20156;-67
2021/08/16 00:15:36;;;;;;;7.35;2.53;;;39.50;45.60;;;;;;5031280;28;20181;-67
2021/08/16 00:18:04;;;;;;;6.00;1.90;;;39.30;45.60;;;;;;5031599;28;20072;-67
2021/08/16 00:20:31;;;;;;;5.50;2.03;;;39.30;44.80;;;;;;5013774;28;20501;-67
2021/08/16 00:22:57;;;;;;;7.00;1.98;;;39.40;45.50;;;;;;5031163;28;20072;-67
2021/08/16 00:25:24;;;;;;;9.15;2.25;;;39.30;45.30;;;;;;5031457;28;20105;-68
2021/08/16 00:27:51;;;;;;;6.00;2.30;;;39.20;44.70;;;;;;5029453;28;20080;-69
2021/08/16 00:30:18;;;;;;;5.07;1.98;;;39.10;45.00;;;;;;5029803;28;20193;-68
2021/08/16 00:32:44;;;;;;;7.00;2.10;;;39.10;43.80;;;;;;5028525;28;20438;-68
2021/08/16 00:35:11;;;;;;;6.85;2.00;;;39.10;44.40;;;;;;5030034;28;20516;-68
2021/08/16 00:37:37;;;;;;;3.58;1.70;;;39.00;44.60;;;;;;5030601;28;20493;-68
2021/08/16 00:40:04;;;;;;;3.97;1.92;;;38.90;44.50;;;;;;5032333;28;20078;-68
2021/08/16 00:42:32;;;;;;;5.30;1.85;;;38.70;45.20;;;;;;5031033;28;20074;-68
2021/08/16 00:44:58;;;;;;;6.07;2.08;;;38.70;46.00;;;;;;5031111;28;20074;-69
2021/08/16 00:47:25;;;;;;;5.45;2.22;;;38.60;46.00;;;;;;5030324;28;20168;-68
2021/08/16 00:49:52;;;;;;;7.78;2.25;;;38.60;45.90;;;;;;5030066;28;20118;-67
2021/08/16 00:52:18;;;;;;;4.82;2.20;;;38.50;46.20;;;;;;5029425;28;20078;-68
2021/08/16 00:54:45;;;;;;;7.15;1.98;;;38.40;46.50;;;;;;5030871;28;20678;-68
2021/08/16 00:57:12;;;;;;;7.38;1.80;;;38.20;46.60;;;;;;5030663;28;20096;-67
2021/08/16 00:59:38;;;;;;;5.75;2.10;;;38.10;46.40;;;;;;5030658;28;20110;-67
2021/08/16 01:02:05;;;;;;;5.03;1.92;;;38.00;46.60;;;;;;5030790;28;20109;-67
2021/08/16 01:04:32;;;;;;;4.47;2.10;;;37.90;46.80;;;;;;5027214;28;20070;-66
2021/08/16 01:06:58;;;;;;;5.75;1.92;;;37.90;46.50;;;;;;5030091;28;20546;-68
2021/08/16 01:09:25;;;;;;;4.65;1.63;;;37.70;46.20;;;;;;5028827;28;20143;-67
2021/08/16 01:11:52;;;;;;;4.82;2.20;;;37.80;46.50;;;;;;5028835;28;20223;-67
2021/08/16 01:14:19;;;;;;;4.22;1.92;;;37.80;47.70;;;;;;5028716;28;20535;-67
2021/08/16 01:16:47;;;;;;;6.45;2.25;;;37.70;47.20;;;;;;5026665;28;20086;-67
2021/08/16 01:19:15;;;;;;;6.93;2.25;;;37.50;47.10;;;;;;5028724;28;20073;-67
2021/08/16 01:21:42;;;;;;;4.97;2.20;;;37.50;47.50;;;;;;5029274;28;20074;-68
2021/08/16 01:24:08;;;;;;;3.47;1.75;;;37.40;47.20;;;;;;5029913;28;20631;-68
2021/08/16 01:26:36;;;;;;;6.00;1.90;;;37.30;47.60;;;;;;5027886;28;20081;-67
2021/08/16 01:29:16;;;;;;;8.95;2.10;;;37.30;47.60;;;;;;5028130;28;20070;-68
2021/08/16 01:31:43;;;;;;;6.05;1.73;;;37.10;47.90;;;;;;5027122;28;20078;-67
2021/08/16 01:34:10;;;;;;;3.63;1.88;;;37.00;48.10;;;;;;5028429;28;20085;-67
2021/08/16 01:36:37;;;;;;;7.70;1.90;;;37.00;48.00;;;;;;5027549;28;20081;-67
2021/08/16 01:39:04;;;;;;;8.13;1.80;;;37.00;48.00;;;;;;5027671;28;20439;-67
2021/08/16 01:41:30;;;;;;;4.85;1.88;;;37.00;47.80;;;;;;5025588;28;20078;-67
2021/08/16 01:43:57;;;;;;;6.70;1.92;;;36.90;48.60;;;;;;5029625;28;20081;-67
2021/08/16 01:46:25;;;;;;;4.22;1.95;;;36.90;48.10;;;;;;5029815;28;20070;-67
2021/08/16 01:48:52;;;;;;;6.20;2.13;;;36.80;48.60;;;;;;5030699;28;20078;-67
2021/08/16 01:51:19;;;;;;;6.45;2.42;;;36.80;49.20;;;;;;5027343;28;20104;-68
2021/08/16 01:53:46;;;;;;;6.47;1.90;;;36.70;49.00;;;;;;5027476;28;20130;-68
2021/08/16 01:56:12;;;;;;;5.65;1.88;;;36.70;49.30;;;;;;5030518;28;20077;-68
2021/08/16 01:58:39;;;;;;;8.43;2.00;;;36.70;49.70;;;;;;5032304;28;20118;-68
2021/08/16 02:01:05;;;;;;;4.60;2.13;;;36.60;49.80;;;;;;5029835;28;20551;-67
2021/08/16 02:03:33;;;;;;;5.32;1.70;;;36.50;50.10;;;;;;5027970;28;20102;-67
2021/08/16 02:06:00;;;;;;;7.20;2.20;;;36.40;50.00;;;;;;5044839;28;20074;-67
2021/08/16 02:08:26;;;;;;;7.15;1.90;;;36.40;50.40;;;;;;5030057;28;20070;-66
2021/08/16 02:10:53;;;;;;;7.15;1.80;;;36.30;50.30;;;;;;5028069;28;20436;-66
2021/08/16 02:13:19;;;;;;;8.35;2.15;;;36.30;50.10;;;;;;5029740;28;20069;-68
2021/08/16 02:15:46;;;;;;;7.30;2.17;;;36.20;50.90;;;;;;5029133;28;20078;-67
2021/08/16 02:18:12;;;;;;;7.38;2.05;;;36.20;50.50;;;;;;5029398;28;20156;-68
2021/08/16 02:20:39;;;;;;;5.15;1.90;;;36.20;50.30;;;;;;5030361;28;20124;-68
2021/08/16 02:23:05;;;;;;;18.55;2.60;;;36.10;50.70;;;;;;5028766;28;20093;-68
2021/08/16 02:25:32;;;;;;;11.73;2.35;;;36.10;50.70;;;;;;5029155;28;20161;-67
2021/08/16 02:27:58;;;;;;;8.95;2.22;;;36.00;50.70;;;;;;5026207;28;20070;-68
2021/08/16 02:30:25;;;;;;;3.40;1.83;;;36.00;51.00;;;;;;5027576;28;20177;-68
2021/08/16 02:32:52;;;;;;;7.00;2.20;;;35.90;50.90;;;;;;5029927;28;20165;-68
2021/08/16 02:35:18;;;;;;;7.90;2.63;;;35.90;50.80;;;;;;5029780;28;20122;-68
2021/08/16 02:37:45;;;;;;;11.85;3.33;;;35.90;50.50;;;;;;5029388;28;20081;-67
2021/08/16 02:40:12;;;;;;;10.05;3.60;;;35.80;50.50;;;;;;5030481;28;20123;-68
2021/08/16 02:42:40;;;;;;;9.48;2.90;;;35.70;50.60;;;;;;5030141;28;20451;-68
2021/08/16 02:45:07;;;;;;;7.00;2.78;;;35.70;50.30;;;;;;5033409;28;20074;-67
2021/08/16 02:47:34;;;;;;;11.65;3.35;;;35.70;50.40;;;;;;5034358;28;20074;-67
2021/08/16 02:50:01;;;;;;;8.95;3.35;;;35.70;50.20;;;;;;5033375;28;20090;-67
2021/08/16 02:52:27;;;;;;;10.50;3.70;;;35.70;50.00;;;;;;5030573;28;20086;-67
2021/08/16 02:54:54;;;;;;;11.23;3.85;;;35.60;50.30;;;;;;5032953;28;20072;-68
2021/08/16 02:57:21;;;;;;;9.90;3.50;;;35.60;50.30;;;;;;5032070;28;20074;-67
2021/08/16 02:59:48;;;;;;;9.18;3.08;;;35.60;50.30;;;;;;5032521;28;20133;-67
2021/08/16 03:02:15;;;;;;;13.70;3.35;;;35.50;50.10;;;;;;5033349;28;20431;-68
2021/08/16 03:04:41;;;;;;;14.23;2.88;;;35.60;49.90;;;;;;5033610;28;20131;-67
2021/08/16 03:07:09;;;;;;;7.28;2.70;;;35.50;49.70;;;;;;5033929;28;20082;-68
2021/08/16 03:09:36;;;;;;;8.73;2.67;;;35.50;49.40;;;;;;5030179;28;20171;-68
2021/08/16 03:12:05;;;;;;;7.70;2.53;;;35.50;49.20;;;;;;5032448;28;20074;-67
2021/08/16 03:14:32;;;;;;;8.50;2.60;;;35.50;49.10;;;;;;5032436;28;20074;-67
2021/08/16 03:16:59;;;;;;;8.25;2.50;;;35.50;49.50;;;;;;5032163;28;20076;-67
2021/08/16 03:19:26;;;;;;;8.13;2.55;;;35.40;49.50;;;;;;5032835;28;20074;-68
2021/08/16 03:21:53;;;;;;;15.15;2.92;;;35.50;49.80;;;;;;5032424;28;20085;-68
2021/08/16 03:24:19;;;;;;;7.00;2.38;;;35.40;49.70;;;;;;5031513;28;20066;-67
2021/08/16 03:26:46;;;;;;;10.70;2.67;;;35.40;49.80;;;;;;5032412;28;20073;-68
2021/08/16 03:29:12;;;;;;;11.48;3.45;;;35.40;49.90;;;;;;5032568;28;20067;-67
2021/08/16 03:31:39;;;;;;;6.50;2.08;;;35.40;50.10;;;;;;5032413;28;21703;-68
2021/08/16 03:34:05;;;;;;;9.63;2.60;;;35.30;50.00;;;;;;5031182;28;20074;-67
2021/08/16 03:36:33;;;;;;;14.32;2.97;;;35.30;50.00;;;;;;5032020;28;20128;-67
2021/08/16 03:38:59;;;;;;;10.98;2.72;;;35.30;50.40;;;;;;5030639;28;20070;-67
2021/08/16 03:41:26;;;;;;;14.57;3.22;;;35.20;50.50;;;;;;5032339;28;20699;-67
2021/08/16 03:43:53;;;;;;;15.02;3.05;;;35.20;50.80;;;;;;5031534;28;20066;-67
2021/08/16 03:46:19;;;;;;;12.85;3.80;;;35.10;50.90;;;;;;5030784;28;20134;-67
2021/08/16 03:48:46;;;;;;;12.07;4.88;;;35.00;51.00;;;;;;5032177;28;20104;-67
2021/08/16 03:51:13;;;;;;;9.90;4.40;;;35.00;50.80;;;;;;5027518;28;20098;-67
2021/08/16 03:53:39;;;;;;;16.92;4.35;;;35.00;50.80;;;;;;5031209;28;20077;-68
2021/08/16 03:56:06;;;;;;;8.98;4.13;;;35.00;51.00;;;;;;5030743;28;20432;-67
2021/08/16 03:58:33;;;;;;;8.77;3.90;;;35.00;50.90;;;;;;5031065;28;20109;-67
2021/08/16 04:01:00;;;;;;;11.50;4.72;;;35.00;51.10;;;;;;5032498;28;20097;-67
2021/08/16 04:03:26;;;;;;;10.57;4.65;;;35.00;51.10;;;;;;5031837;28;20470;-67
2021/08/16 04:05:53;;;;;;;10.85;4.30;;;35.00;51.20;;;;;;5032015;28;20066;-67
2021/08/16 04:08:19;;;;;;;13.77;4.95;;;35.00;51.20;;;;;;5031729;28;20074;-67
2021/08/16 04:10:46;;;;;;;15.68;6.30;;;34.90;51.20;;;;;;5031628;28;20094;-67
2021/08/16 04:13:12;;;;;;;13.13;5.70;;;34.90;51.30;;;;;;5031621;28;20070;-67
2021/08/16 04:15:39;;;;;;;18.42;5.72;;;34.90;51.40;;;;;;5031128;28;20074;-67
2021/08/16 04:18:06;;;;;;;18.98;5.03;;;34.90;51.40;;;;;;5030069;28;20071;-69
2021/08/16 04:20:33;;;;;;;18.73;5.45;;;34.80;51.20;;;;;;5031224;28;20085;-67
2021/08/16 04:22:59;;;;;;;15.30;4.82;;;34.80;51.70;;;;;;5032263;28;20104;-67
2021/08/16 04:25:26;;;;;;;15.40;5.13;;;34.80;51.80;;;;;;5030868;28;20419;-67
2021/08/16 04:27:52;;;;;;;16.20;4.35;;;34.70;52.20;;;;;;5030345;28;20161;-67
2021/08/16 04:30:19;;;;;;;11.32;3.85;;;34.70;52.00;;;;;;5031067;28;20177;-67
2021/08/16 04:32:45;;;;;;;11.65;4.20;;;34.60;52.10;;;;;;5031467;28;20043;-67
2021/08/16 04:35:12;;;;;;;8.15;3.85;;;34.60;52.30;;;;;;5029901;28;20102;-67
2021/08/16 04:37:41;;;;;;;16.88;4.07;;;34.60;52.20;;;;;;5031243;28;20074;-67
2021/08/16 04:40:09;;;;;;;13.20;4.53;;;34.60;52.70;;;;;;5029254;28;20109;-67
2021/08/16 04:42:36;;;;;;;18.58;4.07;;;34.70;52.40;;;;;;5030909;28;20078;-67
2021/08/16 04:45:04;;;;;;;15.98;4.15;;;34.60;52.50;;;;;;5030279;28;20092;-67
2021/08/16 04:47:31;;;;;;;18.50;4.38;;;34.60;53.10;;;;;;5031018;28;20080;-67
2021/08/16 04:49:58;;;;;;;16.45;5.03;;;34.50;52.90;;;;;;5031450;28;20144;-67
2021/08/16 04:52:25;;;;;;;16.83;4.53;;;34.50;53.20;;;;;;5030149;28;20128;-67
2021/08/16 04:54:52;;;;;;;14.65;5.00;;;34.50;53.00;;;;;;5029443;28;20088;-66
2021/08/16 04:57:33;;;;;;;14.07;5.45;;;34.40;53.50;;;;;;5030855;28;20112;-67
2021/08/16 04:59:59;;;;;;;17.48;4.88;;;34.40;53.50;;;;;;5029662;28;20571;-67
2021/08/16 05:02:26;;;;;;;12.15;5.10;;;34.30;53.50;;;;;;5029889;28;20066;-67
2021/08/16 05:05:04;;;;;;;22.83;5.25;;;34.30;53.50;;;;;;5030713;28;20073;-67
2021/08/16 05:07:30;;;;;;;23.77;5.78;;;34.30;53.60;;;;;;5028649;28;20539;-67
2021/08/16 05:09:57;;;;;;;32.70;7.45;;;34.30;53.90;;;;;;5031071;28;20085;-67
2021/08/16 05:12:23;;;;;;;31.60;7.78;;;34.30;53.90;;;;;;5030503;28;20072;-67
2021/08/16 05:14:52;;;;;;;29.02;6.68;;;34.30;53.20;;;;;;5030539;28;20478;-67
2021/08/16 05:17:19;;;;;;;25.10;7.43;;;34.30;54.00;;;;;;5031499;28;20070;-67
2021/08/16 05:19:46;;;;;;;30.05;7.45;;;34.20;54.50;;;;;;5029555;28;20105;-67
2021/08/16 05:22:12;;;;;;;30.23;8.85;;;34.20;54.10;;;;;;5030618;28;20077;-67
2021/08/16 05:24:39;;;;;;;36.03;9.35;;;34.20;54.30;;;;;;5031508;28;20070;-66
2021/08/16 05:27:06;;;;;;;34.20;8.93;;;34.20;54.20;;;;;;5031229;28;20070;-66
2021/08/16 05:29:32;;;;;;;27.23;9.23;;;34.20;54.60;;;;;;5030857;28;20531;-66
2021/08/16 05:31:59;;;;;;;33.20;8.73;;;34.10;54.80;;;;;;5030056;28;20108;-66
2021/08/16 05:34:26;;;;;;;26.55;7.82;;;34.10;55.10;;;;;;5030004;28;20446;-67
2021/08/16 05:36:52;;;;;;;24.38;8.10;;;34.00;55.00;;;;;;5029109;28;20570;-67
2021/08/16 05:39:19;;;;;;;29.63;8.07;;;34.00;54.70;;;;;;5029422;28;20066;-67
2021/08/16 05:41:45;;;;;;;21.60;8.45;;;34.00;54.50;;;;;;5029914;28;20164;-67
2021/08/16 05:44:12;;;;;;;22.50;8.27;;;34.00;54.50;;;;;;5030981;28;20490;-68
2021/08/16 05:46:39;;;;;;;21.40;8.95;;;34.00;54.70;;;;;;5028400;28;20609;-67
2021/08/16 05:49:05;;;;;;;28.85;10.75;;;33.90;55.10;;;;;;5028260;28;20088;-65
2021/08/16 05:51:32;;;;;;;25.83;11.40;;;33.90;54.80;;;;;;5027888;28;20145;-66
2021/08/16 05:53:58;;;;;;;31.52;11.85;;;34.00;54.80;;;;;;5027039;28;20066;-66
2021/08/16 05:56:25;;;;;;;31.00;12.30;;;34.00;54.20;;;;;;5028075;28;20082;-67
2021/08/16 05:58:51;;;;;;;38.38;13.57;;;34.00;54.90;;;;;;5026375;28;20160;-67
2021/08/16 06:01:18;;;;;;;30.75;12.30;;;34.00;55.00;;;;;;5027006;28;20124;-67
2021/08/16 06:03:44;;;;;;;30.65;12.23;;;34.00;55.40;;;;;;5027502;28;20104;-68
2021/08/16 06:06:11;;;;;;;34.65;11.50;;;33.90;55.20;;;;;;5028138;28;20140;-67
2021/08/16 06:08:37;;;;;;;40.38;10.95;;;33.80;55.40;;;;;;5027849;28;20101;-66
2021/08/16 06:11:04;;;;;;;29.02;10.80;;;33.80;55.00;;;;;;5027801;28;20094;-66
2021/08/16 06:13:31;;;;;;;42.53;10.05;;;33.90;55.70;;;;;;5026661;28;20081;-67
2021/08/16 06:15:58;;;;;;;29.73;10.65;;;33.80;55.60;;;;;;5011775;28;20089;-66
2021/08/16 06:18:25;;;;;;;46.45;10.18;;;33.80;55.40;;;;;;5031050;28;20077;-66
2021/08/16 06:20:54;;;;;;;36.92;10.48;;;33.80;55.30;;;;;;5031323;28;20474;-67
2021/08/16 06:23:21;;;;;;;31.73;10.40;;;33.80;55.80;;;;;;5031338;28;20073;-66
2021/08/16 06:25:48;;;;;;;36.17;11.15;;;33.80;56.00;;;;;;5029232;28;20074;-67
2021/08/16 06:28:14;;;;;;;39.95;11.57;;;33.80;55.90;;;;;;5030563;28;20563;-66
2021/08/16 06:30:40;;;;;;;39.70;11.85;;;33.70;56.00;;;;;;5031363;28;20167;-67
2021/08/16 06:33:07;;;;;;;39.88;13.73;;;33.80;55.90;;;;;;5032509;28;20113;-67
2021/08/16 06:35:36;;;;;;;30.65;11.90;;;33.70;56.20;;;;;;5031514;28;20076;-67
2021/08/16 06:38:08;;;;;;;42.40;12.43;;;33.60;56.30;;;;;;5030352;28;20596;-67
2021/08/16 06:40:37;;;;;;;33.03;12.30;;;33.60;56.30;;;;;;5032659;28;20070;-67
2021/08/16 06:43:05;;;;;;;39.75;12.63;;;33.60;56.50;;;;;;5029301;28;20085;-66
2021/08/16 06:48:08;;;;;;;45.70;12.60;;;33.60;57.10;;;;;;5442187;23;19988;-65
2021/08/16 06:50:34;;;;;;;43.38;13.07;;;33.50;57.00;;;;;;5063521;28;20093;-66
2021/08/16 06:53:01;;;;;;;46.05;11.77;;;33.50;57.10;;;;;;5050316;28;20077;-64
2021/08/16 06:55:27;;;;;;;53.40;12.18;;;33.50;57.20;;;;;;5064030;28;20073;-64
2021/08/16 06:57:54;;;;;;;41.50;12.35;;;33.50;57.40;;;;;;5064932;28;20070;-64
2021/08/16 07:00:21;;;;;;;40.35;12.07;;;33.40;57.40;;;;;;5066518;28;20560;-64
2021/08/16 07:02:47;;;;;;;41.72;12.65;;;33.40;57.50;;;;;;5050796;28;20538;-64
2021/08/16 07:05:14;;;;;;;42.95;14.65;;;33.40;57.50;;;;;;5039573;28;20077;-65
2021/08/16 07:07:41;;;;;;;44.72;15.98;;;33.30;57.50;;;;;;5061867;28;20080;-64
2021/08/16 07:10:08;;;;;;;46.80;15.70;;;33.30;57.10;;;;;;5048406;28;20091;-64
2021/08/16 07:12:34;;;;;;;59.95;16.63;;;33.30;57.10;;;;;;5066978;28;20084;-64
2021/08/16 07:15:02;;;;;;;40.75;15.45;;;33.30;57.20;;;;;;5051089;28;20518;-63
2021/08/16 07:17:28;;;;;;;38.30;13.63;;;33.30;57.50;;;;;;5064946;28;20081;-64
2021/08/16 07:19:55;;;;;;;46.33;14.57;;;33.30;57.10;;;;;;5065045;28;20119;-64
2021/08/16 07:22:21;;;;;;;33.58;12.98;;;33.30;57.50;;;;;;5064545;28;20073;-66
2021/08/16 07:24:48;;;;;;;41.53;13.63;;;33.30;57.40;;;;;;5059789;28;20127;-65
2021/08/16 07:27:14;;;;;;;41.80;12.98;;;33.30;57.70;;;;;;5060442;28;20731;-64
2021/08/16 07:29:41;;;;;;;32.97;13.35;;;33.30;58.00;;;;;;5062570;28;20441;-65
2021/08/16 07:32:08;;;;;;;40.67;13.32;;;33.20;57.90;;;;;;5060521;28;20085;-64
2021/08/16 07:34:36;;;;;;;30.50;11.23;;;33.20;57.90;;;;;;5059918;28;21116;-64
2021/08/16 07:37:04;;;;;;;34.28;10.60;;;33.20;58.10;;;;;;5063376;28;20594;-64
2021/08/16 07:39:31;;;;;;;27.83;9.93;;;33.10;57.90;;;;;;5065361;28;20130;-64
2021/08/16 07:41:58;;;;;;;32.30;9.60;;;33.20;58.30;;;;;;5061960;28;20082;-65
2021/08/16 07:44:24;;;;;;;20.58;7.80;;;33.10;58.00;;;;;;5064438;28;20163;-65
2021/08/16 07:46:51;;;;;;;19.08;7.15;;;33.10;58.10;;;;;;5058897;28;20419;-64
2021/08/16 07:49:18;;;;;;;16.98;6.60;;;33.10;57.90;;;;;;5063149;28;20115;-65
2021/08/16 07:51:44;;;;;;;25.92;6.57;;;33.10;57.90;;;;;;5062869;28;20104;-65
2021/08/16 07:54:11;;;;;;;20.55;5.80;;;33.10;58.00;;;;;;5061590;28;20074;-66
2021/08/16 07:56:37;;;;;;;17.63;5.68;;;33.00;57.80;;;;;;5062861;28;20078;-64
2021/08/16 07:59:04;;;;;;;15.00;5.53;;;33.00;58.00;;;;;;5063205;28;20096;-64
2021/08/16 08:01:30;;;;;;;18.85;4.80;;;33.00;58.20;;;;;;5060501;28;20530;-63
2021/08/16 08:03:57;;;;;;;19.85;4.97;;;33.00;58.20;;;;;;5065967;28;20113;-63
2021/08/16 08:06:24;;;;;;;27.35;4.82;;;32.90;58.60;;;;;;5060080;28;20065;-65
2021/08/16 08:08:51;;;;;;;12.00;4.50;;;32.90;58.50;;;;;;5061393;28;20450;-65
2021/08/16 08:11:17;;;;;;;20.23;4.88;;;32.90;58.20;;;;;;5061560;28;20097;-64
2021/08/16 08:13:44;;;;;;;13.80;4.45;;;32.90;58.40;;;;;;5062491;28;20101;-64
2021/08/16 08:16:11;;;;;;;13.70;4.38;;;32.80;58.70;;;;;;5061931;28;20087;-65
2021/08/16 08:18:37;;;;;;;16.65;4.90;;;32.80;58.80;;;;;;5060050;28;20077;-65
2021/08/16 08:21:04;;;;;;;10.25;4.22;;;32.90;58.90;;;;;;5059910;28;20077;-65
2021/08/16 08:23:30;;;;;;;15.07;4.60;;;32.80;58.80;;;;;;5062519;28;20073;-65
2021/08/16 08:25:57;;;;;;;19.90;4.35;;;32.80;58.90;;;;;;5061995;28;20095;-64
2021/08/16 08:28:23;;;;;;;16.38;4.53;;;32.80;59.10;;;;;;5063211;28;20080;-64
2021/08/16 08:30:50;;;;;;;13.45;4.22;;;32.80;59.10;;;;;;5061889;28;20453;-65
2021/08/16 08:33:17;;;;;;;9.88;4.40;;;32.80;59.40;;;;;;5062702;28;20089;-64
2021/08/16 08:35:51;;;;;;;15.57;4.70;;;32.70;59.10;;;;;;5061534;28;20077;-65
2021/08/16 08:38:18;;;;;;;19.10;4.32;;;32.70;59.00;;;;;;5061459;28;20550;-64
2021/08/16 08:40:45;;;;;;;16.38;4.50;;;32.70;59.10;;;;;;5058727;28;20069;-64
2021/08/16 08:43:13;;;;;;;20.48;4.65;;;32.60;59.50;;;;;;5062185;28;20104;-63
2021/08/16 08:45:41;;;;;;;11.40;4.18;;;32.60;59.70;;;;;;5063018;28;20080;-64
2021/08/16 08:48:09;;;;;;;24.48;4.82;;;32.60;59.60;;;;;;5060625;28;20121;-65
2021/08/16 08:50:37;;;;;;;17.85;4.60;;;32.60;59.60;;;;;;5063423;28;20214;-64
2021/08/16 08:53:04;;;;;;;20.77;4.68;;;32.60;59.60;;;;;;5051225;28;20077;-65
2021/08/16 08:55:31;;;;;;;15.27;4.70;;;32.60;59.50;;;;;;5061764;28;20498;-65
2021/08/16 08:58:02;;;;;;;20.50;4.53;;;32.60;59.30;;;;;;5059936;28;20135;-65
2021/08/16 09:00:28;;;;;;;13.88;4.80;;;32.60;59.50;;;;;;5063914;28;20131;-65
2021/08/16 09:03:02;;;;;;;15.35;4.72;;;32.60;59.70;;;;;;5063084;28;20069;-65
2021/08/16 09:05:31;;;;;;;11.65;3.97;;;32.60;59.60;;;;;;5062724;28;20073;-64
2021/08/16 09:07:59;;;;;;;21.17;4.22;;;32.50;59.70;;;;;;5059413;28;20066;-66
2021/08/16 09:10:27;;;;;;;13.20;4.05;;;32.50;59.90;;;;;;5061264;28;20093;-64
2021/08/16 09:13:00;;;;;;;16.02;4.47;;;32.50;59.90;;;;;;5058323;28;20441;-64
2021/08/16 09:15:29;;;;;;;19.17;4.68;;;32.50;59.40;;;;;;5061530;28;20097;-64
2021/08/16 09:18:01;;;;;;;20.48;4.22;;;32.50;59.30;;;;;;5061001;28;20092;-64
2021/08/16 09:20:32;;;;;;;13.77;4.70;;;32.50;59.80;;;;;;5064326;28;20478;-64
2021/08/16 09:23:01;;;;;;;21.20;4.38;;;32.50;59.10;;;;;;5060955;28;20100;-64
2021/08/16 09:25:32;;;;;;;12.95;4.20;;;32.50;59.10;;;;;;5056757;28;20073;-64
2021/08/16 09:27:59;;;;;;;11.98;4.70;;;32.50;58.90;;;;;;5060313;28;20526;-65
2021/08/16 09:30:40;;;;;;;16.23;4.57;;;32.60;59.00;;;;;;5059750;28;20093;-64
2021/08/16 09:33:15;;;;;;;12.88;4.65;;;32.50;58.90;;;;;;5059587;28;20073;-64
2021/08/16 09:35:59;;;;;;;9.90;4.45;;;32.50;59.10;;;;;;5061031;28;20080;-64
2021/08/16 09:38:32;;;;;;;28.27;4.90;;;32.50;59.40;;;;;;5062127;28;20082;-64
2021/08/16 09:40:59;;;;;;;14.25;4.70;;;32.50;59.10;;;;;;5061801;28;20077;-65
2021/08/16 09:43:27;;;;;;;23.92;5.72;;;32.50;59.20;;;;;;5059974;28;20104;-65
2021/08/16 09:45:54;;;;;;;26.40;7.15;;;32.40;59.00;;;;;;5061325;28;20441;-65
2021/08/16 09:48:23;;;;;;;21.80;7.43;;;32.40;59.00;;;;;;5063918;28;20105;-64
2021/08/16 09:50:56;;;;;;;21.52;7.43;;;32.40;59.20;;;;;;5048151;28;20096;-65
2021/08/16 09:53:25;;;;;;;20.70;7.13;;;32.40;59.10;;;;;;5057782;28;20062;-64
2021/08/16 09:56:05;;;;;;;22.40;7.82;;;32.40;58.90;;;;;;5057698;28;20086;-64
2021/08/16 09:58:32;;;;;;;22.48;6.40;;;32.40;58.90;;;;;;5064535;28;20087;-64
2021/08/16 10:00:58;;;;;;;15.65;6.40;;;32.30;59.10;;;;;;5061304;28;20085;-65
2021/08/16 10:03:26;;;;;;;19.98;5.45;;;32.30;59.40;;;;;;5063614;28;20129;-64
2021/08/16 10:05:54;;;;;;;17.08;5.57;;;32.20;59.70;;;;;;5060746;28;20065;-64
2021/08/16 10:08:23;;;;;;;21.63;5.32;;;32.10;59.90;;;;;;5059139;28;20077;-64
2021/08/16 10:10:54;;;;;;;21.55;6.10;;;32.10;59.90;;;;;;5060450;28;20101;-65
2021/08/16 10:13:21;;;;;;;17.38;5.15;;;32.00;60.00;;;;;;5059559;28;20152;-65
2021/08/16 10:15:52;;;;;;;15.65;4.72;;;32.10;60.80;;;;;;5058805;28;20085;-64
2021/08/16 10:18:39;;;;;;;13.95;4.32;;;32.00;61.10;;;;;;5060695;28;20069;-64
2021/08/16 10:21:06;;;;;;;13.00;4.05;;;32.10;61.30;;;;;;5061747;28;20581;-64
2021/08/16 10:23:32;;;;;;;10.30;3.70;;;32.00;61.50;;;;;;5061445;28;20077;-65
2021/08/16 10:25:59;;;;;;;13.75;4.13;;;31.90;61.90;;;;;;5060802;28;20081;-64
2021/08/16 10:28:33;;;;;;;16.20;4.10;;;31.90;62.30;;;;;;5059357;28;20065;-65
2021/08/16 10:31:02;;;;;;;11.07;3.35;;;31.80;62.50;;;;;;5054719;28;20092;-64
2021/08/16 10:33:28;;;;;;;12.65;3.83;;;31.70;63.00;;;;;;5047146;28;20084;-64
2021/08/16 10:35:57;;;;;;;10.10;3.13;;;31.70;63.50;;;;;;5061799;28;20098;-64
2021/08/16 10:38:25;;;;;;;14.07;3.50;;;31.60;64.10;;;;;;5059416;28;20160;-65
2021/08/16 10:40:54;;;;;;;9.07;3.53;;;31.60;64.40;;;;;;5059599;28;20077;-64
2021/08/16 10:43:21;;;;;;;8.98;2.97;;;31.50;64.30;;;;;;5062610;28;20065;-64
2021/08/16 10:45:53;;;;;;;12.02;3.60;;;31.50;65.30;;;;;;5063820;28;20434;-63
2021/08/16 10:48:34;;;;;;;13.35;3.58;;;31.50;65.20;;;;;;5048047;28;20574;-64
2021/08/16 10:51:08;;;;;;;18.75;3.33;;;31.40;66.00;;;;;;5041902;28;20184;-64
2021/08/16 10:53:52;;;;;;;13.15;2.90;;;31.40;65.80;;;;;;5040688;28;20454;-64
2021/08/16 10:56:23;;;;;;;9.15;3.45;;;31.40;66.60;;;;;;5041776;28;20169;-64
2021/08/16 10:58:51;;;;;;;11.60;3.40;;;31.40;66.60;;;;;;5040475;28;20074;-64
2021/08/16 11:01:31;;;;;;;8.95;3.33;;;31.40;66.60;;;;;;5044144;28;20101;-65
2021/08/16 11:04:08;;;;;;;10.13;3.47;;;31.50;67.40;;;;;;5042195;28;20088;-65
2021/08/16 11:06:36;;;;;;;13.55;3.83;;;31.30;66.90;;;;;;5041605;28;20057;-65
2021/08/16 11:09:06;;;;;;;9.35;3.28;;;31.40;67.90;;;;;;5041287;28;20204;-65
2021/08/16 11:11:34;;;;;;;10.77;3.25;;;31.30;67.40;;;;;;5042451;28;20094;-64
2021/08/16 11:14:11;;;;;;;6.93;3.42;;;31.20;68.10;;;;;;5045108;28;20073;-65
2021/08/16 11:16:49;;;;;;;13.00;3.22;;;31.20;68.10;;;;;;5042763;28;20544;-63
2021/08/16 11:19:16;;;;;;;7.25;2.88;;;31.20;68.10;;;;;;5041352;28;20108;-64
2021/08/16 11:22:00;;;;;;;8.13;3.05;;;31.30;67.50;;;;;;5044232;28;20084;-65
2021/08/16 11:24:35;;;;;;;10.48;3.97;;;31.20;68.30;;;;;;5041570;28;20539;-64
2021/08/16 11:27:06;;;;;;;17.15;4.85;;;31.10;68.30;;;;;;5042304;28;20099;-63
2021/08/16 11:29:33;;;;;;;13.10;4.95;;;31.00;70.00;;;;;;5043269;28;20081;-64
2021/08/16 11:32:02;;;;;;;13.98;4.78;;;31.00;69.90;;;;;;5046303;28;20102;-64
2021/08/16 11:34:30;;;;;;;15.32;5.45;;;30.90;70.60;;;;;;5042266;28;20160;-64
2021/08/16 11:36:58;;;;;;;13.25;4.93;;;30.90;71.00;;;;;;5043272;28;20135;-63
2021/08/16 11:39:33;;;;;;;13.40;5.22;;;30.90;71.80;;;;;;5042184;28;20131;-65
2021/08/16 11:42:03;;;;;;;16.55;5.80;;;30.90;71.90;;;;;;5044592;28;20073;-65
2021/08/16 11:44:32;;;;;;;22.35;5.90;;;30.90;72.70;;;;;;5041263;28;20074;-65
2021/08/16 11:47:00;;;;;;;17.05;5.82;;;31.00;72.80;;;;;;5040041;28;20077;-63
2021/08/16 11:49:34;;;;;;;19.33;5.45;;;31.00;72.60;;;;;;5064555;28;20147;-64
2021/08/16 11:52:02;;;;;;;16.67;5.47;;;31.00;72.80;;;;;;5061843;28;20088;-66
2021/08/16 11:54:31;;;;;;;15.38;6.07;;;31.00;73.40;;;;;;5048609;28;20077;-64
2021/08/16 11:57:03;;;;;;;14.70;4.95;;;31.00;74.50;;;;;;5064847;28;20081;-66
2021/08/16 11:59:30;;;;;;;17.13;4.95;;;30.90;74.30;;;;;;5051376;28;20069;-65
2021/08/16 12:02:01;;;;;;;10.98;5.07;;;30.90;74.90;;;;;;5058967;28;20473;-65
2021/08/16 12:04:29;;;;;;;15.48;5.28;;;30.90;75.10;;;;;;5062575;28;20074;-65
2021/08/16 12:06:56;;;;;;;16.73;4.82;;;30.90;75.50;;;;;;5062931;28;20065;-64
2021/08/16 12:09:33;;;;;;;17.15;5.18;;;30.80;75.30;;;;;;5062525;28;20081;-64
2021/08/16 12:12:01;;;;;;;17.15;5.25;;;30.90;75.30;;;;;;5062589;28;20472;-65
2021/08/16 12:14:47;;;;;;;16.40;5.38;;;30.80;75.30;;;;;;5064834;28;20077;-64
2021/08/16 12:17:34;;;;;;;18.08;6.57;;;30.80;75.40;;;;;;5060793;28;20077;-65
2021/08/16 12:20:20;;;;;;;19.60;6.57;;;30.90;75.40;;;;;;5063031;28;20072;-65
2021/08/16 12:22:58;;;;;;;20.33;6.70;;;30.90;75.00;;;;;;5062207;28;20081;-65
2021/08/16 12:25:26;;;;;;;21.20;6.95;;;30.90;75.80;;;;;;5063337;28;20073;-64
2021/08/16 12:28:01;;;;;;;18.05;7.18;;;30.90;74.70;;;;;;5061466;28;20080;-63
2021/08/16 12:30:33;;;;;;;25.23;7.88;;;30.90;74.30;;;;;;5064219;28;20092;-65
2021/08/16 12:33:13;;;;;;;18.58;7.90;;;30.90;74.30;;;;;;5063922;28;20562;-64
2021/08/16 12:35:41;;;;;;;31.35;9.18;;;30.90;74.10;;;;;;5064281;28;20104;-64
2021/08/16 12:38:08;;;;;;;21.17;7.80;;;29.90;90.50;;;;;;5063943;28;20098;-64
2021/08/16 12:40:35;;;;;;;23.02;7.43;;;30.90;73.90;;;;;;5055219;28;20135;-64
2021/08/16 12:43:04;;;;;;;17.45;6.30;;;30.90;74.00;;;;;;5061591;28;20085;-65
2021/08/16 12:45:33;;;;;;;16.58;5.75;;;30.90;73.70;;;;;;5064928;28;20092;-64